createdAt,value
2022-12-17T00:02:36.638Z,19.90
2022-12-17T00:05:25.442Z,19.80
2022-12-17T00:08:20.821Z,19.80
2022-12-17T00:11:08.987Z,19.80
2022-12-17T00:13:58.178Z,19.70
2022-12-17T00:16:46.981Z,19.90
2022-12-17T00:19:34.950Z,20.00
2022-12-17T00:22:23.237Z,20.00
2022-12-17T00:25:11.731Z,20.20
2022-12-17T00:28:00.389Z,20.40
2022-12-17T00:30:48.637Z,20.60
2022-12-17T00:33:36.835Z,20.70
2022-12-17T00:36:25.802Z,20.90
2022-12-17T00:39:14.007Z,21.10
2022-12-17T00:42:02.105Z,21.10
2022-12-17T00:44:50.277Z,21.10
2022-12-17T00:47:38.486Z,21.10
2022-12-17T00:50:27.616Z,21.10
2022-12-17T00:53:16.019Z,21.10
2022-12-17T00:56:04.270Z,21.10
2022-12-17T00:58:52.940Z,20.90
2022-12-17T01:01:43.724Z,21.10
2022-12-17T01:04:32.536Z,21.20
2022-12-17T01:07:20.994Z,21.30
2022-12-17T01:10:09.414Z,21.20
2022-12-17T01:13:18.837Z,21.30
2022-12-17T01:16:07.279Z,21.30
2022-12-17T01:18:57.594Z,21.30
2022-12-17T01:21:46.341Z,21.50
2022-12-17T01:24:35.280Z,21.70
2022-12-17T01:27:23.428Z,21.80
2022-12-17T01:30:12.479Z,21.90
2022-12-17T01:33:02.635Z,22.00
2022-12-17T01:35:52.194Z,22.20
2022-12-17T01:38:43.030Z,22.10
2022-12-17T01:41:32.564Z,22.10
2022-12-17T01:44:42.117Z,22.20
2022-12-17T01:47:31.144Z,22.20
2022-12-17T01:50:21.922Z,22.30
2022-12-17T01:53:14.219Z,22.40
2022-12-17T01:56:03.078Z,22.30
2022-12-17T01:58:52.079Z,22.30
2022-12-17T02:01:41.410Z,22.30
2022-12-17T02:04:31.053Z,22.40
2022-12-17T02:07:53.742Z,22.40
2022-12-17T02:10:46.921Z,22.50
2022-12-17T02:13:46.050Z,22.50
2022-12-17T02:16:55.640Z,22.60
2022-12-17T02:20:11.633Z,22.30
2022-12-17T02:23:36.920Z,22.40
2022-12-17T02:27:17.092Z,22.30
2022-12-17T02:30:11.856Z,22.10
2022-12-17T02:33:02.103Z,22.20
2022-12-17T02:36:14.111Z,22.40
2022-12-17T02:39:02.641Z,22.60
2022-12-17T02:42:00.530Z,22.90
2022-12-17T02:44:51.012Z,22.90
2022-12-17T02:47:40.978Z,23.00
2022-12-17T02:50:31.107Z,22.90
2022-12-17T02:53:25.141Z,22.90
2022-12-17T02:56:14.785Z,23.00
2022-12-17T02:59:03.139Z,23.00
2022-12-17T03:01:51.331Z,22.90
2022-12-17T03:04:39.844Z,22.90
2022-12-17T03:07:28.785Z,23.00
2022-12-17T03:10:18.487Z,23.00
2022-12-17T03:13:06.850Z,23.00
2022-12-17T03:15:54.652Z,22.80
2022-12-17T03:18:42.896Z,22.70
2022-12-17T03:21:30.905Z,22.70
2022-12-17T03:24:19.511Z,22.90
2022-12-17T03:27:07.492Z,23.20
2022-12-17T03:29:55.954Z,23.10
2022-12-17T03:32:58.044Z,22.70
2022-12-17T03:35:46.734Z,22.50
2022-12-17T03:38:35.739Z,22.30
2022-12-17T03:41:25.274Z,22.30
2022-12-17T03:44:14.709Z,22.00
2022-12-17T03:47:03.508Z,21.90
2022-12-17T03:49:52.061Z,21.60
2022-12-17T03:52:41.106Z,21.50
2022-12-17T03:55:29.144Z,21.60
2022-12-17T03:58:19.293Z,21.80
2022-12-17T04:01:08.089Z,22.10
2022-12-17T04:03:57.545Z,22.30
2022-12-17T04:06:46.065Z,22.20
2022-12-17T04:09:35.599Z,22.20
2022-12-17T04:12:25.205Z,22.00
2022-12-17T04:15:13.717Z,21.90
2022-12-17T04:18:02.107Z,21.70
2022-12-17T04:20:51.274Z,21.50
2022-12-17T04:23:40.180Z,21.50
2022-12-17T04:26:29.871Z,21.70
2022-12-17T04:29:19.347Z,21.70
2022-12-17T04:32:08.125Z,21.60
2022-12-17T04:34:56.753Z,21.40
2022-12-17T04:37:45.879Z,21.30
2022-12-17T04:40:34.943Z,21.10
2022-12-17T04:43:41.541Z,21.10
2022-12-17T04:46:29.887Z,21.10
2022-12-17T04:49:18.086Z,21.00
2022-12-17T04:52:06.160Z,20.90
2022-12-17T04:54:54.044Z,20.90
2022-12-17T04:57:42.062Z,21.00
2022-12-17T05:00:31.004Z,21.20
2022-12-17T05:03:30.649Z,21.30
2022-12-17T05:06:18.650Z,21.40
2022-12-17T05:09:07.078Z,21.50
2022-12-17T05:11:55.121Z,21.50
2022-12-17T05:14:43.015Z,21.40
2022-12-17T05:17:31.057Z,21.30
2022-12-17T05:20:19.121Z,21.40
2022-12-17T05:23:07.162Z,21.40
2022-12-17T05:25:55.794Z,21.20
2022-12-17T05:28:44.192Z,21.20
2022-12-17T05:31:33.395Z,21.30
2022-12-17T05:34:22.012Z,21.40
2022-12-17T05:37:10.233Z,21.50
2022-12-17T05:39:58.269Z,21.60
2022-12-17T05:42:46.845Z,21.50
2022-12-17T05:45:34.857Z,21.40
2022-12-17T05:48:23.327Z,21.30
2022-12-17T05:51:11.780Z,21.10
2022-12-17T05:53:59.791Z,21.10
2022-12-17T05:56:48.237Z,21.10
2022-12-17T05:59:36.734Z,21.10
2022-12-17T06:02:25.313Z,21.10
2022-12-17T06:05:14.352Z,20.90
2022-12-17T06:08:02.498Z,20.80
2022-12-17T06:10:50.436Z,20.80
2022-12-17T06:13:38.642Z,20.70
2022-12-17T06:16:27.114Z,20.60
2022-12-17T06:19:15.314Z,20.50
2022-12-17T06:22:03.454Z,20.40
2022-12-17T06:24:51.779Z,20.30
2022-12-17T06:27:40.142Z,20.40
2022-12-17T06:30:28.775Z,20.40
2022-12-17T06:33:32.119Z,20.40
2022-12-17T06:36:22.885Z,20.40
2022-12-17T06:39:11.609Z,20.30
2022-12-17T06:42:04.746Z,20.30
2022-12-17T06:44:53.150Z,20.20
2022-12-17T06:47:41.895Z,20.20
2022-12-17T06:50:30.050Z,20.10
2022-12-17T06:53:23.813Z,20.00
2022-12-17T06:56:12.825Z,20.10
2022-12-17T06:59:01.119Z,20.00
2022-12-17T07:01:49.770Z,20.00
2022-12-17T07:04:38.285Z,20.00
2022-12-17T07:07:26.621Z,20.00
2022-12-17T07:10:14.718Z,20.00
2022-12-17T07:13:02.909Z,19.80
2022-12-17T07:15:51.726Z,19.80
2022-12-17T07:18:41.297Z,19.80
2022-12-17T07:21:29.285Z,19.70
2022-12-17T07:24:17.730Z,19.70
2022-12-17T07:27:06.491Z,19.70
2022-12-17T07:29:55.726Z,19.80
2022-12-17T07:32:43.904Z,19.80
2022-12-17T07:35:32.098Z,19.70
2022-12-17T07:38:27.272Z,19.60
2022-12-17T07:41:15.703Z,19.50
2022-12-17T07:44:05.768Z,19.40
2022-12-17T07:46:53.800Z,19.30
2022-12-17T07:49:41.947Z,19.10
2022-12-17T07:52:30.175Z,19.10
2022-12-17T07:55:18.586Z,19.00
2022-12-17T07:58:06.802Z,18.90
2022-12-17T08:00:54.966Z,18.80
2022-12-17T08:03:43.224Z,18.70
2022-12-17T08:06:31.116Z,18.70
2022-12-17T08:09:19.009Z,18.50
2022-12-17T08:12:07.073Z,18.40
2022-12-17T08:14:55.720Z,18.20
2022-12-17T08:17:44.192Z,18.10
2022-12-17T08:20:33.482Z,18.00
2022-12-17T08:23:24.160Z,17.90
2022-12-17T08:26:12.512Z,17.80
2022-12-17T08:29:00.691Z,17.80
2022-12-17T08:31:48.776Z,17.70
2022-12-17T08:34:37.052Z,17.70
2022-12-17T08:37:39.260Z,17.60
2022-12-17T08:40:28.463Z,17.50
2022-12-17T08:43:19.624Z,17.40
2022-12-17T08:46:11.997Z,17.40
2022-12-17T08:49:00.053Z,17.30
2022-12-17T08:51:48.499Z,17.30
2022-12-17T08:54:37.116Z,17.20
2022-12-17T08:57:31.762Z,17.00
2022-12-17T09:00:21.161Z,17.10
2022-12-17T09:03:09.534Z,17.00
2022-12-17T09:05:57.756Z,16.90
2022-12-17T09:08:54.908Z,16.80
2022-12-17T09:11:42.991Z,16.80
2022-12-17T09:14:31.380Z,16.80
2022-12-17T09:17:19.435Z,16.70
2022-12-17T09:20:08.895Z,16.60
2022-12-17T09:22:57.410Z,16.50
2022-12-17T09:25:46.009Z,16.40
2022-12-17T09:28:34.766Z,16.40
2022-12-17T09:31:23.237Z,16.30
2022-12-17T09:34:14.064Z,16.20
2022-12-17T09:37:04.097Z,16.20
2022-12-17T09:39:52.457Z,16.10
2022-12-17T09:43:17.154Z,16.10
2022-12-17T09:46:24.761Z,16.00
2022-12-17T09:49:23.964Z,15.90
2022-12-17T09:52:12.561Z,15.80
2022-12-17T09:55:10.817Z,15.80
2022-12-17T09:57:58.901Z,15.80
2022-12-17T10:00:49.269Z,15.70
2022-12-17T10:03:42.945Z,15.60
2022-12-17T10:06:45.411Z,15.40
2022-12-17T10:09:39.062Z,15.40
2022-12-17T10:12:35.501Z,15.40
2022-12-17T10:15:24.339Z,15.30
2022-12-17T10:18:13.038Z,15.20
2022-12-17T10:21:21.856Z,15.00
2022-12-17T10:24:14.100Z,15.00
2022-12-17T10:27:09.694Z,14.90
2022-12-17T10:29:59.985Z,14.80
2022-12-17T10:32:49.453Z,14.80
2022-12-17T10:35:57.438Z,14.80
2022-12-17T10:38:52.513Z,14.80
2022-12-17T10:41:54.773Z,14.70
2022-12-17T10:44:51.768Z,14.60
2022-12-17T10:47:43.761Z,14.50
2022-12-17T10:50:35.960Z,14.50
2022-12-17T10:53:37.014Z,14.50
2022-12-17T10:56:26.610Z,14.40
2022-12-17T10:59:15.822Z,14.40
2022-12-17T11:02:04.301Z,14.40
2022-12-17T11:04:58.499Z,14.30
2022-12-17T11:07:57.980Z,14.30
2022-12-17T11:10:53.475Z,14.20
2022-12-17T11:13:55.999Z,14.10
2022-12-17T11:16:50.592Z,14.10
2022-12-17T11:19:48.281Z,14.10
2022-12-17T11:23:04.280Z,14.10
2022-12-17T11:26:16.069Z,14.00
2022-12-17T11:29:05.375Z,13.90
2022-12-17T11:32:14.919Z,13.90
2022-12-17T11:35:37.111Z,13.90
2022-12-17T11:39:00.966Z,13.90
2022-12-17T11:41:55.925Z,13.90
2022-12-17T11:45:01.711Z,13.90
2022-12-17T11:48:21.679Z,13.90
2022-12-17T11:51:27.066Z,13.90
2022-12-17T11:55:10.444Z,14.00
2022-12-17T11:58:11.430Z,14.00
2022-12-17T12:01:52.578Z,14.10
2022-12-17T12:05:17.530Z,14.10
2022-12-17T12:08:50.284Z,14.20
2022-12-17T12:11:59.218Z,14.20
2022-12-17T12:15:07.875Z,14.20
2022-12-17T12:18:05.006Z,14.20
2022-12-17T12:20:56.070Z,14.30
2022-12-17T12:24:16.405Z,14.20
2022-12-17T12:27:20.397Z,14.30
2022-12-17T12:30:26.487Z,14.20
2022-12-17T12:33:44.250Z,14.20
2022-12-17T12:36:35.523Z,14.20
2022-12-17T12:39:24.027Z,14.20
2022-12-17T12:43:00.039Z,14.20
2022-12-17T12:46:13.356Z,14.20
2022-12-17T12:49:39.855Z,14.30
2022-12-17T12:52:35.832Z,14.30
2022-12-17T12:55:25.262Z,14.30
2022-12-17T12:58:45.169Z,14.30
2022-12-17T13:01:33.846Z,14.30
2022-12-17T13:04:35.990Z,14.30
2022-12-17T13:07:07.541Z,14.20
2022-12-17T13:09:52.287Z,14.30
2022-12-17T13:12:34.481Z,14.30
2022-12-17T13:15:34.074Z,14.20
2022-12-17T13:18:24.919Z,14.20
2022-12-17T13:21:05.142Z,14.20
2022-12-17T13:23:40.953Z,14.20
2022-12-17T13:26:26.267Z,14.20
2022-12-17T13:28:59.785Z,14.20
2022-12-17T13:31:36.259Z,14.30
2022-12-17T13:34:19.529Z,14.30
2022-12-17T13:37:12.192Z,14.30
2022-12-17T13:39:54.865Z,14.30
2022-12-17T13:42:32.824Z,14.30
2022-12-17T13:45:03.801Z,14.30
2022-12-17T13:47:37.271Z,14.30
2022-12-17T13:50:36.628Z,14.20
2022-12-17T13:53:15.484Z,14.20
2022-12-17T13:55:54.266Z,14.30
2022-12-17T13:58:34.306Z,14.30
2022-12-17T14:01:13.555Z,14.20
2022-12-17T14:04:07.513Z,14.20
2022-12-17T14:06:41.604Z,14.20
2022-12-17T14:09:22.515Z,14.10
2022-12-17T14:12:11.954Z,14.10
2022-12-17T14:14:45.357Z,14.10
2022-12-17T14:17:31.115Z,14.10
2022-12-17T14:20:13.433Z,14.10
2022-12-17T14:22:51.830Z,14.10
2022-12-17T14:25:32.767Z,14.10
2022-12-17T14:28:07.207Z,14.10
2022-12-17T14:31:17.380Z,14.10
2022-12-17T14:33:39.404Z,14.00
2022-12-17T14:36:25.474Z,14.00
2022-12-17T14:39:05.246Z,13.90
2022-12-17T14:41:59.571Z,13.90
2022-12-17T14:44:32.991Z,13.80
2022-12-17T14:47:22.826Z,13.80
2022-12-17T14:50:28.859Z,13.70
2022-12-17T14:53:02.651Z,13.60
2022-12-17T14:55:57.708Z,13.50
2022-12-17T14:58:29.602Z,13.40
2022-12-17T15:01:15.333Z,13.30
2022-12-17T15:03:50.828Z,13.20
2022-12-17T15:06:22.656Z,13.20
2022-12-17T15:08:55.145Z,13.10
2022-12-17T15:11:44.562Z,13.00
2022-12-17T15:14:33.806Z,12.90
2022-12-17T15:17:04.167Z,12.90
2022-12-17T15:19:34.727Z,12.80
2022-12-17T15:22:06.911Z,12.70
2022-12-17T15:24:37.258Z,12.70
2022-12-17T15:27:07.488Z,12.60
2022-12-17T15:29:38.154Z,12.60
2022-12-17T15:32:09.692Z,12.60
2022-12-17T15:34:41.252Z,12.50
2022-12-17T15:37:12.403Z,12.50
2022-12-17T15:39:43.566Z,12.50
2022-12-17T15:42:32.259Z,12.50
2022-12-17T15:45:02.982Z,12.50
2022-12-17T15:47:33.360Z,12.40
2022-12-17T15:50:03.942Z,12.40
2022-12-17T15:52:34.355Z,12.30
2022-12-17T15:55:06.253Z,12.30
2022-12-17T15:57:36.935Z,12.20
2022-12-17T16:00:08.579Z,12.20
2022-12-17T16:02:40.015Z,12.10
2022-12-17T16:05:11.665Z,12.10
2022-12-17T16:07:42.336Z,12.00
2022-12-17T16:10:13.918Z,12.00
2022-12-17T16:12:44.700Z,12.00
2022-12-17T16:15:15.749Z,11.90
2022-12-17T16:17:46.071Z,11.80
2022-12-17T16:20:16.995Z,11.80
2022-12-17T16:22:47.286Z,11.70
2022-12-17T16:25:17.660Z,11.70
2022-12-17T16:27:48.595Z,11.70
2022-12-17T16:30:19.295Z,11.60
2022-12-17T16:32:50.466Z,11.60
2022-12-17T16:35:21.109Z,11.60
2022-12-17T16:37:51.798Z,11.70
2022-12-17T16:40:22.798Z,11.70
2022-12-17T16:42:53.525Z,11.80
2022-12-17T16:45:26.305Z,11.80
2022-12-17T16:47:57.948Z,11.90
2022-12-17T16:50:32.639Z,11.90
2022-12-17T16:53:03.372Z,11.90
2022-12-17T16:55:34.549Z,11.90
2022-12-17T16:58:04.939Z,11.90
2022-12-17T17:00:37.545Z,11.80
2022-12-17T17:03:10.195Z,11.80
2022-12-17T17:05:42.608Z,11.80
2022-12-17T17:08:12.890Z,11.70
2022-12-17T17:10:43.122Z,11.70
2022-12-17T17:13:15.152Z,11.60
2022-12-17T17:15:47.694Z,11.60
2022-12-17T17:18:22.219Z,11.50
2022-12-17T17:20:54.940Z,11.50
2022-12-17T17:23:25.542Z,11.40
2022-12-17T17:25:57.532Z,11.40
2022-12-17T17:28:30.171Z,11.50
2022-12-17T17:31:05.989Z,11.50
2022-12-17T17:33:40.444Z,11.40
2022-12-17T17:36:16.091Z,11.40
2022-12-17T17:38:46.800Z,11.30
2022-12-17T17:41:20.791Z,11.30
2022-12-17T17:43:54.912Z,11.20
2022-12-17T17:46:25.421Z,11.20
2022-12-17T17:48:57.886Z,11.20
2022-12-17T17:52:07.166Z,11.10
2022-12-17T17:54:22.434Z,11.00
2022-12-17T17:56:56.927Z,11.00
2022-12-17T17:59:33.371Z,10.90
2022-12-17T18:02:05.109Z,10.80
2022-12-17T18:04:36.364Z,10.80
2022-12-17T18:09:57.818Z,10.70
2022-12-17T18:12:45.805Z,10.70
2022-12-17T18:15:17.853Z,10.70
2022-12-17T18:17:54.092Z,10.70
2022-12-17T18:20:24.724Z,10.70
2022-12-17T18:22:55.436Z,10.70
2022-12-17T18:25:25.695Z,10.70
2022-12-17T18:27:57.058Z,10.70
2022-12-17T18:30:27.269Z,10.60
2022-12-17T18:32:58.930Z,10.70
2022-12-17T18:35:29.203Z,10.70
2022-12-17T18:37:59.473Z,10.70
2022-12-17T18:40:33.304Z,10.60
2022-12-17T18:43:28.273Z,10.60
2022-12-17T18:45:59.524Z,10.60
2022-12-17T18:48:30.157Z,10.50
2022-12-17T18:51:08.020Z,10.50
2022-12-17T18:53:38.239Z,10.50
2022-12-17T18:56:31.723Z,10.50
2022-12-17T18:59:06.324Z,10.50
2022-12-17T19:01:38.939Z,10.50
2022-12-17T19:04:12.415Z,10.60
2022-12-17T19:06:46.526Z,10.60
2022-12-17T19:09:25.854Z,10.70
2022-12-17T19:12:15.684Z,10.70
2022-12-17T19:15:05.663Z,10.70
2022-12-17T19:17:36.512Z,10.70
2022-12-17T19:20:07.528Z,10.70
2022-12-17T19:22:38.499Z,10.70
2022-12-17T19:25:10.491Z,10.60
2022-12-17T19:27:41.199Z,10.60
2022-12-17T19:30:13.088Z,10.70
2022-12-17T19:32:44.314Z,10.70
2022-12-17T19:35:15.001Z,10.80
2022-12-17T19:37:45.807Z,10.90
2022-12-17T19:40:16.881Z,11.00
2022-12-17T19:42:48.112Z,11.10
2022-12-17T19:45:19.138Z,11.20
2022-12-17T19:47:50.451Z,11.20
2022-12-17T19:50:21.004Z,11.30
2022-12-17T19:52:51.365Z,11.30
2022-12-17T19:55:23.162Z,11.40
2022-12-17T19:57:54.100Z,11.50
2022-12-17T20:00:26.959Z,11.60
2022-12-17T20:02:58.307Z,11.60
2022-12-17T20:05:28.579Z,11.70
2022-12-17T20:08:00.526Z,11.70
2022-12-17T20:10:30.754Z,11.70
2022-12-17T20:13:01.007Z,11.80
2022-12-17T20:15:32.280Z,11.80
2022-12-17T20:18:02.601Z,11.80
2022-12-17T20:20:33.337Z,11.90
2022-12-17T20:23:04.031Z,11.90
2022-12-17T20:25:34.366Z,12.00
2022-12-17T20:28:05.582Z,12.10
2022-12-17T20:30:36.303Z,12.10
2022-12-17T20:33:07.965Z,12.10
2022-12-17T20:35:42.018Z,12.20
2022-12-17T20:38:14.151Z,12.30
2022-12-17T20:40:45.167Z,12.30
2022-12-17T20:43:15.680Z,12.30
2022-12-17T20:45:53.994Z,12.40
2022-12-17T20:48:25.692Z,12.50
2022-12-17T20:50:56.552Z,12.60
2022-12-17T20:53:27.058Z,12.80
2022-12-17T20:56:06.519Z,12.90
2022-12-17T20:58:38.116Z,13.00
2022-12-17T21:01:13.648Z,13.10
2022-12-17T21:03:48.331Z,13.20
2022-12-17T21:06:31.013Z,13.20
2022-12-17T21:09:02.465Z,13.20
2022-12-17T21:11:35.600Z,13.20
2022-12-17T21:14:11.227Z,13.30
2022-12-17T21:16:42.890Z,13.20
2022-12-17T21:19:18.355Z,13.20
2022-12-17T21:21:49.302Z,13.20
2022-12-17T21:24:19.815Z,13.20
2022-12-17T21:26:51.426Z,13.30
2022-12-17T21:29:23.095Z,13.30
2022-12-17T21:31:55.095Z,13.40
2022-12-17T21:34:29.547Z,13.50
2022-12-17T21:36:59.847Z,13.70
2022-12-17T21:39:31.090Z,13.90
2022-12-17T21:42:18.995Z,14.00
2022-12-17T21:44:49.380Z,14.20
2022-12-17T21:47:20.620Z,14.50
2022-12-17T21:49:52.277Z,14.70
2022-12-17T21:52:23.518Z,15.00
2022-12-17T21:54:54.826Z,15.30
2022-12-17T21:57:25.289Z,15.60
2022-12-17T21:59:56.253Z,15.90
2022-12-17T22:02:28.595Z,16.20
2022-12-17T22:04:59.622Z,16.60
2022-12-17T22:07:32.550Z,16.90
2022-12-17T22:10:39.403Z,17.20
2022-12-17T22:13:15.965Z,17.30
2022-12-17T22:15:48.441Z,17.40
2022-12-17T22:18:19.484Z,17.50
2022-12-17T22:21:04.292Z,17.60
2022-12-17T22:23:36.251Z,17.70
2022-12-17T22:26:12.651Z,17.80
2022-12-17T22:28:47.798Z,17.80
2022-12-17T22:31:38.934Z,17.90
2022-12-17T22:34:51.063Z,17.80
2022-12-17T22:40:04.232Z,17.90
2022-12-17T22:44:05.237Z,18.00
2022-12-17T22:44:43.457Z,18.20
2022-12-17T22:46:00.688Z,18.30
2022-12-17T22:48:32.905Z,18.40
2022-12-17T22:51:20.752Z,18.50
2022-12-17T22:54:08.336Z,18.50
2022-12-17T22:57:32.850Z,18.50
2022-12-17T22:59:31.159Z,18.60
2022-12-17T23:02:01.978Z,18.50
2022-12-17T23:04:32.797Z,18.60
2022-12-17T23:07:03.654Z,18.50
2022-12-17T23:09:34.592Z,18.40
2022-12-17T23:12:24.952Z,18.20
2022-12-17T23:14:55.188Z,18.30
2022-12-17T23:17:25.630Z,18.50
2022-12-17T23:19:55.905Z,18.50
2022-12-17T23:22:26.607Z,18.60
2022-12-17T23:24:57.832Z,18.70
2022-12-17T23:27:29.506Z,18.90
2022-12-17T23:30:00.961Z,18.90
2022-12-17T23:32:31.718Z,19.10
2022-12-17T23:35:03.408Z,19.10
2022-12-17T23:37:39.368Z,19.30
2022-12-17T23:40:12.411Z,19.40
2022-12-17T23:43:02.286Z,19.50
2022-12-17T23:45:33.087Z,19.50
2022-12-17T23:48:04.754Z,19.50
2022-12-17T23:50:35.541Z,19.50
2022-12-17T23:53:05.863Z,19.60
2022-12-17T23:55:36.310Z,19.70
2022-12-17T23:58:06.624Z,19.80
